Time;durP1;ratioP1;P1;durP2;ratioP2;P2;SDS_P1;SDS_P2;PMS_P1;PMS_P2;Temp;Humidity;BMP_temperature;BMP_pressure;BME280_temperature;BME280_humidity;BME280_pressure;Samples;Min_cycle;Max_cycle;Signal;HPM_P1;HPM_P2
2023/12/01 00:00:40;;;;;;;1.90;1.80;;;1.30;98.20;;;;;;5006551;28;20551;-80
2023/12/01 00:03:08;;;;;;;1.70;1.60;;;1.20;98.20;;;;;;5006528;28;20857;-81
2023/12/01 00:05:34;;;;;;;1.70;1.50;;;1.20;98.20;;;;;;5009527;28;20526;-81
2023/12/01 00:08:02;;;;;;;1.63;1.50;;;1.30;98.20;;;;;;5004949;28;20475;-80
2023/12/01 00:10:29;;;;;;;1.67;1.53;;;1.30;98.20;;;;;;5008716;28;20478;-81
2023/12/01 00:12:55;;;;;;;1.60;1.47;;;1.30;98.20;;;;;;5009793;28;20460;-80
2023/12/01 00:15:23;;;;;;;1.70;1.60;;;1.30;98.20;;;;;;5008229;28;21207;-81
2023/12/01 00:17:50;;;;;;;1.70;1.60;;;1.30;98.20;;;;;;5006271;28;20482;-81
2023/12/01 00:20:18;;;;;;;1.67;1.40;;;1.40;98.20;;;;;;5009888;28;20464;-80
2023/12/01 00:22:45;;;;;;;1.70;1.50;;;1.40;98.20;;;;;;5010244;28;21564;-80
2023/12/01 00:25:11;;;;;;;1.67;1.50;;;1.40;98.20;;;;;;5014562;28;20474;-80
2023/12/01 00:27:38;;;;;;;3.70;3.40;;;1.40;98.20;;;;;;5013654;28;20998;-81
2023/12/01 00:30:06;;;;;;;1.70;1.50;;;1.40;98.20;;;;;;5013848;28;20485;-80
2023/12/01 00:32:35;;;;;;;1.70;1.50;;;1.40;98.20;;;;;;5012232;28;20456;-80
2023/12/01 00:35:01;;;;;;;1.70;1.60;;;1.50;98.20;;;;;;5013311;28;20463;-80
2023/12/01 00:37:28;;;;;;;1.70;1.50;;;1.50;98.20;;;;;;5011397;28;20971;-81
2023/12/01 00:39:55;;;;;;;1.70;1.60;;;1.50;98.20;;;;;;5013407;28;20456;-80
2023/12/01 00:42:22;;;;;;;1.67;1.50;;;1.50;98.20;;;;;;5013491;28;20472;-81
2023/12/01 00:44:50;;;;;;;1.60;1.50;;;1.50;98.20;;;;;;5011642;28;20488;-80
2023/12/01 00:47:16;;;;;;;1.70;1.50;;;1.60;98.20;;;;;;5092660;23;20555;-81
2023/12/01 00:49:44;;;;;;;1.70;1.60;;;1.60;98.20;;;;;;5030309;28;20530;-81
2023/12/01 00:52:11;;;;;;;4.80;4.50;;;1.60;98.20;;;;;;5024384;28;20850;-81
2023/12/01 00:54:38;;;;;;;1.60;1.40;;;1.60;98.20;;;;;;5031198;28;20459;-81
2023/12/01 00:57:05;;;;;;;1.67;1.53;;;1.60;98.20;;;;;;5027604;28;20781;-81
2023/12/01 00:59:32;;;;;;;1.70;1.50;;;1.60;98.20;;;;;;5019546;28;20475;-80
2023/12/01 01:01:59;;;;;;;1.70;1.50;;;1.60;98.20;;;;;;5013147;28;20460;-81
2023/12/01 01:04:26;;;;;;;1.70;1.50;;;1.60;98.20;;;;;;5011651;28;20484;-81
2023/12/01 01:06:54;;;;;;;1.60;1.47;;;1.70;98.20;;;;;;5024669;28;20483;-81
2023/12/01 01:09:20;;;;;;;1.63;1.50;;;1.70;98.20;;;;;;5019512;28;20464;-80
2023/12/01 01:11:47;;;;;;;1.70;1.50;;;1.60;98.20;;;;;;5017799;28;20475;-79
2023/12/01 01:14:14;;;;;;;1.67;1.50;;;1.60;98.20;;;;;;5023237;28;20820;-81
2023/12/01 01:16:41;;;;;;;1.70;1.50;;;1.60;98.20;;;;;;5014517;28;20480;-81
2023/12/01 01:19:07;;;;;;;1.67;1.40;;;1.50;98.20;;;;;;5017539;28;20758;-81
2023/12/01 01:21:34;;;;;;;1.70;1.50;;;1.50;98.20;;;;;;5022038;28;20487;-81
2023/12/01 01:24:02;;;;;;;1.70;1.60;;;1.50;98.20;;;;;;5018634;28;20491;-81
2023/12/01 01:26:29;;;;;;;1.70;1.50;;;1.50;98.20;;;;;;5013454;28;20522;-79
2023/12/01 01:28:56;;;;;;;1.70;1.50;;;1.50;98.20;;;;;;5012927;28;20460;-80
2023/12/01 01:31:23;;;;;;;1.70;1.60;;;1.50;98.20;;;;;;5018570;28;20466;-80
2023/12/01 01:33:50;;;;;;;1.70;1.50;;;1.50;98.20;;;;;;5013042;28;20457;-80
2023/12/01 01:36:18;;;;;;;1.70;1.50;;;1.50;98.20;;;;;;5022567;28;20954;-81
2023/12/01 01:38:44;;;;;;;1.67;1.50;;;1.50;98.20;;;;;;5022057;28;20468;-82
2023/12/01 01:41:12;;;;;;;1.70;1.50;;;1.50;98.20;;;;;;5021839;28;20491;-80
2023/12/01 01:43:39;;;;;;;1.70;1.50;;;1.50;98.20;;;;;;5016100;28;20492;-81
2023/12/01 01:46:07;;;;;;;1.70;1.60;;;1.50;98.20;;;;;;5026877;28;20478;-80
2023/12/01 01:48:35;;;;;;;1.80;1.70;;;1.50;98.20;;;;;;5015744;28;20464;-81
2023/12/01 01:51:03;;;;;;;1.70;1.50;;;1.50;98.20;;;;;;5026725;28;20478;-81
2023/12/01 01:53:31;;;;;;;1.70;1.50;;;1.50;98.20;;;;;;5017955;28;20460;-80
2023/12/01 01:55:59;;;;;;;1.67;1.50;;;1.50;98.20;;;;;;5019357;28;20638;-80
2023/12/01 01:58:27;;;;;;;1.60;1.40;;;1.50;98.20;;;;;;5016861;28;20486;-80
2023/12/01 02:00:54;;;;;;;1.70;1.50;;;1.50;98.20;;;;;;5017478;28;20482;-80
2023/12/01 02:03:23;;;;;;;1.70;1.50;;;1.50;98.20;;;;;;5012500;28;20488;-80
2023/12/01 02:05:50;;;;;;;1.70;1.50;;;1.50;98.20;;;;;;5012604;28;20468;-81
2023/12/01 02:08:25;;;;;;;1.70;1.50;;;1.50;98.20;;;;;;5014048;28;20484;-82
2023/12/01 02:10:52;;;;;;;1.90;1.70;;;1.50;98.20;;;;;;5016239;28;20472;-81
2023/12/01 02:13:20;;;;;;;1.63;1.50;;;1.50;98.20;;;;;;5017349;28;20459;-80
2023/12/01 02:15:48;;;;;;;1.70;1.50;;;1.50;98.20;;;;;;5021463;28;20464;-81
2023/12/01 02:18:22;;;;;;;1.67;1.50;;;1.50;98.20;;;;;;5018598;28;20491;-81
2023/12/01 02:20:49;;;;;;;1.70;1.50;;;1.50;98.20;;;;;;5019125;28;20487;-81
2023/12/01 02:23:18;;;;;;;1.70;1.57;;;1.40;98.20;;;;;;5018270;28;20470;-80
2023/12/01 02:25:45;;;;;;;1.70;1.60;;;1.40;98.20;;;;;;5010818;28;20472;-83
2023/12/01 02:28:11;;;;;;;1.70;1.50;;;1.40;98.20;;;;;;5016157;28;20834;-81
2023/12/01 02:30:38;;;;;;;1.70;1.50;;;1.40;98.20;;;;;;5016126;28;20471;-81
2023/12/01 02:33:05;;;;;;;1.67;1.50;;;1.40;98.20;;;;;;5013661;28;20476;-80
2023/12/01 02:35:32;;;;;;;1.70;1.50;;;1.40;98.20;;;;;;5015784;28;20460;-81
2023/12/01 02:37:59;;;;;;;1.70;1.60;;;1.40;98.20;;;;;;5020961;28;20486;-80
2023/12/01 02:40:28;;;;;;;1.70;1.60;;;1.40;98.20;;;;;;5022558;28;20838;-81
2023/12/01 02:42:55;;;;;;;1.70;1.50;;;1.50;98.20;;;;;;5021978;28;20490;-80
2023/12/01 02:45:22;;;;;;;1.67;1.50;;;1.50;98.20;;;;;;5017229;28;20484;-81
2023/12/01 02:47:49;;;;;;;1.70;1.53;;;1.50;98.20;;;;;;5022374;28;20895;-80
2023/12/01 02:50:16;;;;;;;1.70;1.50;;;1.50;98.20;;;;;;5018426;28;20460;-81
2023/12/01 02:52:43;;;;;;;1.67;1.50;;;1.50;98.20;;;;;;5006567;28;20483;-82
2023/12/01 02:55:11;;;;;;;1.63;1.50;;;1.50;98.20;;;;;;5010343;28;20496;-81
2023/12/01 02:57:40;;;;;;;1.67;1.50;;;1.50;98.20;;;;;;5010749;28;20494;-81
2023/12/01 03:00:10;;;;;;;1.70;1.50;;;1.60;98.20;;;;;;5006197;28;20901;-80
2023/12/01 03:02:37;;;;;;;1.60;1.40;;;1.50;98.20;;;;;;5010930;28;20460;-83
2023/12/01 03:05:05;;;;;;;1.70;1.50;;;1.50;98.20;;;;;;5015261;28;20576;-80
2023/12/01 03:07:32;;;;;;;1.70;1.57;;;1.50;98.20;;;;;;5010756;28;20486;-81
2023/12/01 03:09:58;;;;;;;1.67;1.40;;;1.50;98.20;;;;;;5011777;28;20460;-82
2023/12/01 03:12:25;;;;;;;1.67;1.50;;;1.50;98.20;;;;;;5011863;28;20739;-82
2023/12/01 03:14:53;;;;;;;1.70;1.50;;;1.50;98.20;;;;;;5012021;28;20463;-80
2023/12/01 03:17:23;;;;;;;1.63;1.50;;;1.50;98.20;;;;;;5010604;28;20699;-82
2023/12/01 03:19:51;;;;;;;1.67;1.50;;;1.60;98.20;;;;;;5010138;28;20464;-82
2023/12/01 03:22:17;;;;;;;1.67;1.50;;;1.60;98.20;;;;;;5009770;28;20486;-81
2023/12/01 03:24:47;;;;;;;1.70;1.50;;;1.60;98.20;;;;;;5003447;28;20488;-81
2023/12/01 03:27:14;;;;;;;1.70;1.60;;;1.60;98.20;;;;;;5000979;28;20818;-79
2023/12/01 03:29:41;;;;;;;1.63;1.50;;;1.60;98.20;;;;;;5011399;28;20464;-80
2023/12/01 03:32:09;;;;;;;1.70;1.50;;;1.70;98.20;;;;;;5007946;28;20480;-81
2023/12/01 03:34:36;;;;;;;1.63;1.50;;;1.70;98.20;;;;;;5010159;28;20456;-80
2023/12/01 03:37:03;;;;;;;1.67;1.50;;;1.70;98.20;;;;;;5010535;28;20525;-79
2023/12/01 03:39:31;;;;;;;1.63;1.50;;;1.60;98.20;;;;;;5009796;28;20468;-82
2023/12/01 03:41:58;;;;;;;1.70;1.60;;;1.60;98.20;;;;;;5010918;28;20465;-81
2023/12/01 03:44:25;;;;;;;1.67;1.50;;;1.60;98.20;;;;;;5011855;28;20485;-81
2023/12/01 03:46:51;;;;;;;1.63;1.50;;;1.60;98.20;;;;;;5009451;28;20485;-81
2023/12/01 03:49:19;;;;;;;1.70;1.50;;;1.60;98.20;;;;;;5010584;28;20460;-80
2023/12/01 03:51:46;;;;;;;1.70;1.50;;;1.60;98.20;;;;;;5009959;28;20476;-80
2023/12/01 03:54:13;;;;;;;1.60;1.40;;;1.60;98.20;;;;;;5011546;28;20486;-82
2023/12/01 03:56:40;;;;;;;1.60;1.50;;;1.60;98.20;;;;;;5010081;28;20490;-81
2023/12/01 03:59:09;;;;;;;1.60;1.43;;;1.50;98.20;;;;;;5010536;28;20468;-81
2023/12/01 04:01:38;;;;;;;1.67;1.50;;;1.50;98.20;;;;;;5010641;28;20658;-81
2023/12/01 04:04:05;;;;;;;1.67;1.40;;;1.50;98.20;;;;;;5009884;28;20580;-83
2023/12/01 04:06:33;;;;;;;1.70;1.50;;;1.50;98.20;;;;;;5011756;28;20480;-82
2023/12/01 04:09:09;;;;;;;1.67;1.50;;;1.50;98.20;;;;;;5010483;28;20465;-82
2023/12/01 04:11:36;;;;;;;1.60;1.50;;;1.50;98.20;;;;;;5008811;28;20459;-80
2023/12/01 04:14:03;;;;;;;1.70;1.47;;;1.60;98.20;;;;;;5011083;28;20594;-80
2023/12/01 04:16:30;;;;;;;1.63;1.50;;;1.60;98.20;;;;;;5010444;28;20534;-82
2023/12/01 04:18:57;;;;;;;1.70;1.50;;;1.60;98.20;;;;;;5009782;28;20840;-81
2023/12/01 04:21:24;;;;;;;1.63;1.50;;;1.60;98.20;;;;;;5011209;28;20848;-82
2023/12/01 04:23:52;;;;;;;1.67;1.50;;;1.60;98.20;;;;;;5009903;28;20473;-82
2023/12/01 04:26:19;;;;;;;1.70;1.50;;;1.60;98.20;;;;;;5009299;28;20527;-83
2023/12/01 04:28:45;;;;;;;1.67;1.50;;;1.60;98.20;;;;;;5009873;28;20460;-80
2023/12/01 04:31:12;;;;;;;1.60;1.50;;;1.60;98.20;;;;;;5007089;28;20495;-82
2023/12/01 04:33:39;;;;;;;1.63;1.40;;;1.60;98.20;;;;;;5011183;28;20480;-81
2023/12/01 04:36:07;;;;;;;1.67;1.50;;;1.60;98.20;;;;;;5023955;28;20487;-80
2023/12/01 04:38:35;;;;;;;1.70;1.50;;;1.60;98.20;;;;;;5015014;28;20463;-84
2023/12/01 04:41:03;;;;;;;1.70;1.50;;;1.60;98.20;;;;;;5011057;28;20464;-82
2023/12/01 04:43:33;;;;;;;1.63;1.50;;;1.60;98.20;;;;;;5010574;28;20928;-80
2023/12/01 04:45:59;;;;;;;1.63;1.50;;;1.60;98.20;;;;;;5011170;28;20487;-81
2023/12/01 04:48:26;;;;;;;1.63;1.50;;;1.60;98.20;;;;;;5010649;28;20496;-82
2023/12/01 04:50:53;;;;;;;1.70;1.60;;;1.60;98.20;;;;;;5010063;28;20796;-82
2023/12/01 04:53:20;;;;;;;1.70;1.60;;;1.60;98.20;;;;;;5009395;28;20472;-81
2023/12/01 04:55:47;;;;;;;1.70;1.50;;;1.60;98.20;;;;;;5011660;28;20460;-81
2023/12/01 04:58:15;;;;;;;1.70;1.60;;;1.60;98.20;;;;;;5010397;28;20484;-80
2023/12/01 05:00:42;;;;;;;1.70;1.50;;;1.60;98.20;;;;;;5011101;28;20774;-82
2023/12/01 05:03:10;;;;;;;1.70;1.50;;;1.60;98.20;;;;;;5011788;28;20471;-82
2023/12/01 05:05:41;;;;;;;1.70;1.60;;;1.60;98.20;;;;;;5010563;28;20488;-81
2023/12/01 05:08:11;;;;;;;1.70;1.50;;;1.50;98.20;;;;;;5018439;28;20480;-81
2023/12/01 05:10:44;;;;;;;1.60;1.50;;;1.50;98.20;;;;;;5016110;28;20865;-84
2023/12/01 05:13:11;;;;;;;1.63;1.50;;;1.50;98.20;;;;;;5015704;28;20919;-82
2023/12/01 05:15:40;;;;;;;1.70;1.50;;;1.50;98.20;;;;;;5014842;28;20502;-82
2023/12/01 05:18:10;;;;;;;1.70;1.60;;;1.50;98.20;;;;;;5016631;28;20476;-81
2023/12/01 05:20:37;;;;;;;2.93;2.73;;;1.50;98.20;;;;;;5019186;28;20951;-81
2023/12/01 05:23:08;;;;;;;1.70;1.60;;;1.50;98.20;;;;;;5015650;28;20940;-80
2023/12/01 05:25:36;;;;;;;1.70;1.50;;;1.50;98.20;;;;;;5009437;28;20531;-80
2023/12/01 05:28:05;;;;;;;1.70;1.60;;;1.50;98.20;;;;;;5021630;28;20975;-82
2023/12/01 05:30:34;;;;;;;1.60;1.50;;;1.60;98.20;;;;;;5016148;28;20475;-82
2023/12/01 05:33:04;;;;;;;1.70;1.50;;;1.50;98.20;;;;;;5017342;28;20460;-81
2023/12/01 05:35:32;;;;;;;1.70;1.60;;;1.60;98.20;;;;;;5017431;28;20467;-81
2023/12/01 05:37:59;;;;;;;1.67;1.50;;;1.60;98.20;;;;;;5018911;28;20502;-81
2023/12/01 05:40:27;;;;;;;1.70;1.50;;;1.60;98.20;;;;;;5018108;28;20460;-82
2023/12/01 05:42:56;;;;;;;1.67;1.50;;;1.60;98.20;;;;;;5018449;28;20474;-82
2023/12/01 05:45:24;;;;;;;1.67;1.50;;;1.60;98.20;;;;;;5018197;28;20485;-81
2023/12/01 05:47:53;;;;;;;1.70;1.60;;;1.60;98.20;;;;;;5017691;28;20488;-82
2023/12/01 05:50:23;;;;;;;1.70;1.60;;;1.60;98.20;;;;;;5014381;28;20460;-83
2023/12/01 05:52:51;;;;;;;1.70;1.60;;;1.60;98.20;;;;;;5016412;28;20467;-82
2023/12/01 05:55:19;;;;;;;1.63;1.50;;;1.50;98.20;;;;;;5018280;28;20491;-82
2023/12/01 05:57:47;;;;;;;1.63;1.50;;;1.60;98.20;;;;;;5016367;28;20480;-84
2023/12/01 06:00:17;;;;;;;1.63;1.50;;;1.50;98.20;;;;;;5014876;28;20464;-82
2023/12/01 06:02:44;;;;;;;1.63;1.50;;;1.60;98.20;;;;;;5017828;28;20461;-82
2023/12/01 06:05:12;;;;;;;1.67;1.50;;;1.60;98.20;;;;;;5016116;28;20545;-81
2023/12/01 06:07:43;;;;;;;1.70;1.50;;;1.60;98.20;;;;;;5017510;28;20531;-83
2023/12/01 06:10:10;;;;;;;1.63;1.50;;;1.60;98.20;;;;;;5015772;28;20471;-82
2023/12/01 06:12:38;;;;;;;1.60;1.40;;;1.60;98.20;;;;;;5016457;28;20880;-82
2023/12/01 06:15:07;;;;;;;1.70;1.50;;;1.60;98.20;;;;;;5018640;28;20547;-82
2023/12/01 06:17:34;;;;;;;1.63;1.50;;;1.70;98.20;;;;;;5016217;28;20484;-81
2023/12/01 06:20:01;;;;;;;1.63;1.40;;;1.70;98.20;;;;;;5017624;28;20499;-82
2023/12/01 06:22:28;;;;;;;1.70;1.50;;;1.70;98.20;;;;;;5014526;28;20468;-79
2023/12/01 06:24:56;;;;;;;1.70;1.50;;;1.70;98.20;;;;;;5015614;28;20576;-82
2023/12/01 06:27:23;;;;;;;1.63;1.50;;;1.70;98.20;;;;;;5017745;28;20498;-81
2023/12/01 06:29:50;;;;;;;1.70;1.50;;;1.60;98.20;;;;;;5016885;28;20463;-79
2023/12/01 06:32:17;;;;;;;1.63;1.50;;;1.60;98.20;;;;;;5013938;28;20494;-81
2023/12/01 06:34:44;;;;;;;1.67;1.50;;;1.70;98.20;;;;;;5015559;28;20464;-81
2023/12/01 06:37:11;;;;;;;1.70;1.50;;;1.70;98.20;;;;;;5018691;28;20482;-82
2023/12/01 06:39:38;;;;;;;1.63;1.50;;;1.70;98.20;;;;;;5015292;28;20474;-83
2023/12/01 06:42:06;;;;;;;1.67;1.50;;;1.70;98.20;;;;;;5015954;28;20471;-82
2023/12/01 06:44:35;;;;;;;1.70;1.60;;;1.70;98.20;;;;;;5014530;28;20470;-82
2023/12/01 06:47:02;;;;;;;1.60;1.47;;;1.70;98.20;;;;;;5018034;28;20492;-84
2023/12/01 06:49:28;;;;;;;1.70;1.50;;;1.70;98.20;;;;;;5019876;28;20509;-81
2023/12/01 06:51:58;;;;;;;1.70;1.50;;;1.70;98.20;;;;;;5016950;28;20750;-83
2023/12/01 06:54:25;;;;;;;1.70;1.43;;;1.70;98.20;;;;;;5020912;28;20463;-83
2023/12/01 06:56:52;;;;;;;1.70;1.50;;;1.70;98.20;;;;;;5017312;28;20555;-82
2023/12/01 06:59:21;;;;;;;1.70;1.60;;;1.70;98.20;;;;;;5020526;28;21027;-81
2023/12/01 07:01:47;;;;;;;1.60;1.50;;;1.70;98.20;;;;;;5018036;28;20525;-82
2023/12/01 07:04:15;;;;;;;1.60;1.40;;;1.70;98.20;;;;;;5012877;28;20723;-81
2023/12/01 07:06:46;;;;;;;1.67;1.50;;;1.70;98.20;;;;;;5010194;28;20586;-81
2023/12/01 07:09:17;;;;;;;1.63;1.50;;;1.70;98.20;;;;;;5007726;28;20910;-81
2023/12/01 07:11:44;;;;;;;1.67;1.40;;;1.70;98.20;;;;;;5007617;28;20461;-83
2023/12/01 07:14:12;;;;;;;1.70;1.60;;;1.70;98.20;;;;;;5011676;28;20464;-81
2023/12/01 07:16:41;;;;;;;1.67;1.47;;;1.60;98.20;;;;;;5010926;28;20492;-80
2023/12/01 07:19:08;;;;;;;1.67;1.50;;;1.60;98.20;;;;;;5006362;28;20476;-83
2023/12/01 07:21:35;;;;;;;1.70;1.50;;;1.60;98.20;;;;;;5006598;28;20476;-81
2023/12/01 07:24:04;;;;;;;1.70;1.50;;;1.60;98.20;;;;;;5007759;28;20464;-82
2023/12/01 07:26:33;;;;;;;1.63;1.50;;;1.60;98.20;;;;;;5007424;28;20522;-82
2023/12/01 07:29:04;;;;;;;1.67;1.50;;;1.60;98.20;;;;;;5003115;28;20464;-82
2023/12/01 07:31:31;;;;;;;1.73;1.63;;;1.60;98.20;;;;;;5010285;28;20460;-83
2023/12/01 07:33:59;;;;;;;1.60;1.50;;;1.60;98.20;;;;;;5001829;28;20595;-80
2023/12/01 07:36:27;;;;;;;1.90;1.70;;;1.60;98.20;;;;;;5000303;28;20483;-81
2023/12/01 07:38:54;;;;;;;1.67;1.50;;;1.60;98.20;;;;;;5006775;28;20472;-82
2023/12/01 07:41:21;;;;;;;1.67;1.50;;;1.60;98.20;;;;;;5007417;28;20575;-82
2023/12/01 07:43:48;;;;;;;1.63;1.50;;;1.60;98.20;;;;;;5007126;28;20922;-83
2023/12/01 07:46:14;;;;;;;1.63;1.50;;;1.60;98.20;;;;;;5004420;28;20500;-82
2023/12/01 07:48:41;;;;;;;1.70;1.50;;;1.60;98.20;;;;;;5007880;28;20474;-84
2023/12/01 07:51:10;;;;;;;1.70;1.50;;;1.60;98.20;;;;;;5010696;28;20460;-82
2023/12/01 07:53:36;;;;;;;1.63;1.50;;;1.60;98.20;;;;;;5006183;28;20496;-83
2023/12/01 07:56:04;;;;;;;1.60;1.50;;;1.60;98.20;;;;;;5008104;28;20540;-83
2023/12/01 07:58:31;;;;;;;1.67;1.50;;;1.60;98.20;;;;;;5007830;28;20503;-82
2023/12/01 08:00:59;;;;;;;1.70;1.50;;;1.60;98.20;;;;;;5002748;28;20563;-81
2023/12/01 08:03:25;;;;;;;1.60;1.50;;;1.60;98.20;;;;;;5007087;28;20465;-80
2023/12/01 08:05:52;;;;;;;1.70;1.50;;;1.60;98.20;;;;;;5006629;28;20557;-80
2023/12/01 08:08:20;;;;;;;1.67;1.50;;;1.60;98.20;;;;;;5006666;28;20980;-84
2023/12/01 08:10:47;;;;;;;1.63;1.50;;;1.60;98.20;;;;;;5004825;28;20473;-80
2023/12/01 08:13:14;;;;;;;1.63;1.50;;;1.60;98.20;;;;;;5008403;28;20464;-82
2023/12/01 08:15:41;;;;;;;6.23;2.70;;;1.60;98.20;;;;;;5001936;28;20480;-81
2023/12/01 08:18:08;;;;;;;2.20;2.00;;;1.60;98.20;;;;;;4996847;28;20588;-83
2023/12/01 08:20:35;;;;;;;1.70;1.57;;;1.60;98.20;;;;;;5005016;28;20482;-82
2023/12/01 08:23:02;;;;;;;1.67;1.50;;;1.60;98.20;;;;;;5004050;28;20471;-82
2023/12/01 08:25:30;;;;;;;1.70;1.60;;;1.50;98.20;;;;;;5009824;28;20495;-82
2023/12/01 08:27:57;;;;;;;1.70;1.50;;;1.50;98.20;;;;;;5005408;28;20499;-81
2023/12/01 08:30:25;;;;;;;1.60;1.50;;;1.50;98.20;;;;;;5002038;28;20467;-81
2023/12/01 08:32:52;;;;;;;1.67;1.50;;;1.40;98.20;;;;;;5003870;28;20464;-80
2023/12/01 08:35:19;;;;;;;1.63;1.50;;;1.40;98.20;;;;;;5002271;28;20476;-84
2023/12/01 08:37:46;;;;;;;5.93;3.87;;;1.40;98.20;;;;;;5008316;28;20496;-84
2023/12/01 08:40:13;;;;;;;1.67;1.50;;;1.40;98.20;;;;;;4998949;28;20500;-82
2023/12/01 08:42:42;;;;;;;1.70;1.50;;;1.40;98.20;;;;;;5004689;28;20482;-82
2023/12/01 08:45:10;;;;;;;1.80;1.70;;;1.40;98.20;;;;;;5007770;28;20915;-82
2023/12/01 08:47:37;;;;;;;1.70;1.50;;;1.50;98.20;;;;;;5006814;28;20598;-82
2023/12/01 08:50:04;;;;;;;1.70;1.50;;;1.50;98.20;;;;;;5006914;28;20479;-81
2023/12/01 08:52:32;;;;;;;1.70;1.50;;;1.50;98.20;;;;;;5009331;28;20559;-80
2023/12/01 08:54:59;;;;;;;1.80;1.70;;;1.40;98.20;;;;;;5016195;28;20505;-81
2023/12/01 08:57:26;;;;;;;1.67;1.57;;;1.40;98.20;;;;;;5008856;28;20504;-83
2023/12/01 08:59:54;;;;;;;1.67;1.50;;;1.40;98.20;;;;;;5009160;28;20464;-80
2023/12/01 09:02:21;;;;;;;1.67;1.50;;;1.40;98.20;;;;;;5004412;28;20644;-81
2023/12/01 09:04:48;;;;;;;1.70;1.50;;;1.40;98.20;;;;;;5005893;28;21101;-80
2023/12/01 09:07:15;;;;;;;1.80;1.70;;;1.40;98.20;;;;;;5008175;28;20494;-81
2023/12/01 09:09:42;;;;;;;2.67;2.47;;;1.50;98.20;;;;;;5004233;28;20464;-81
2023/12/01 09:12:08;;;;;;;1.63;1.50;;;1.50;98.20;;;;;;5004673;28;20482;-80
2023/12/01 09:14:35;;;;;;;1.63;1.50;;;1.50;98.20;;;;;;5009674;28;20486;-82
2023/12/01 09:17:04;;;;;;;1.63;1.40;;;1.50;98.20;;;;;;5006004;28;20492;-81
2023/12/01 09:19:30;;;;;;;1.63;1.50;;;1.40;98.20;;;;;;5009838;28;20970;-82
2023/12/01 09:21:58;;;;;;;2.20;2.00;;;1.50;98.20;;;;;;5007924;28;20481;-81
2023/12/01 09:24:24;;;;;;;1.70;1.50;;;1.50;98.20;;;;;;5006713;28;20469;-82
2023/12/01 09:26:51;;;;;;;1.67;1.50;;;1.50;98.20;;;;;;5006893;28;20507;-80
2023/12/01 09:29:18;;;;;;;1.70;1.50;;;1.50;98.20;;;;;;5006500;28;20503;-81
2023/12/01 09:31:46;;;;;;;1.70;1.50;;;1.60;98.20;;;;;;5003367;28;20468;-82
2023/12/01 09:34:14;;;;;;;1.67;1.50;;;1.50;98.20;;;;;;5007252;28;21114;-80
2023/12/01 09:36:43;;;;;;;1.67;1.50;;;1.50;98.20;;;;;;5010469;28;20483;-82
2023/12/01 09:39:09;;;;;;;1.60;1.47;;;1.60;98.20;;;;;;5006984;28;20467;-82
2023/12/01 09:41:43;;;;;;;1.70;1.50;;;1.60;98.20;;;;;;5007064;28;20467;-82
2023/12/01 09:44:10;;;;;;;2.10;1.90;;;1.70;98.20;;;;;;5004678;28;20536;-82
2023/12/01 09:46:39;;;;;;;1.70;1.50;;;1.70;98.20;;;;;;5003074;28;20515;-82
2023/12/01 09:49:07;;;;;;;1.63;1.47;;;1.70;98.20;;;;;;5003467;28;20472;-81
2023/12/01 09:51:36;;;;;;;1.63;1.50;;;1.80;98.20;;;;;;5007727;28;20615;-82
2023/12/01 09:54:04;;;;;;;1.63;1.50;;;1.80;98.20;;;;;;5005665;28;20487;-83
2023/12/01 09:56:31;;;;;;;1.67;1.50;;;1.70;98.20;;;;;;5004538;28;20494;-85
2023/12/01 09:58:59;;;;;;;1.63;1.50;;;1.70;98.20;;;;;;5009728;28;20461;-82
2023/12/01 10:01:26;;;;;;;1.70;1.50;;;1.70;98.20;;;;;;5012459;28;20469;-81
2023/12/01 10:03:53;;;;;;;1.70;1.60;;;1.80;98.20;;;;;;5007720;28;20541;-82
2023/12/01 10:06:20;;;;;;;1.60;1.40;;;1.70;98.20;;;;;;5007461;28;20498;-85
2023/12/01 10:08:49;;;;;;;1.70;1.50;;;1.70;98.20;;;;;;5010438;28;20473;-82
2023/12/01 10:11:21;;;;;;;1.70;1.53;;;1.70;98.20;;;;;;5004443;28;20477;-82
2023/12/01 10:13:49;;;;;;;1.67;1.40;;;1.70;98.20;;;;;;5001673;28;20991;-83
2023/12/01 10:16:16;;;;;;;1.67;1.50;;;1.70;98.20;;;;;;5001252;28;20473;-81
2023/12/01 10:18:57;;;;;;;1.60;1.50;;;1.70;98.20;;;;;;5003333;28;21065;-83
2023/12/01 10:21:42;;;;;;;1.70;1.50;;;1.80;98.20;;;;;;5006313;28;20460;-81
2023/12/01 10:24:15;;;;;;;1.63;1.40;;;1.80;98.20;;;;;;5006749;28;20472;-82
2023/12/01 10:26:44;;;;;;;1.63;1.50;;;1.80;98.20;;;;;;5011680;28;20488;-82
2023/12/01 10:29:30;;;;;;;1.70;1.50;;;1.80;98.20;;;;;;5000836;28;20465;-85
2023/12/01 10:31:58;;;;;;;1.63;1.50;;;1.80;98.20;;;;;;5001869;28;21041;-82
2023/12/01 10:34:25;;;;;;;1.70;1.60;;;1.90;98.20;;;;;;5001469;28;20465;-81
2023/12/01 10:36:53;;;;;;;1.70;1.50;;;1.90;98.20;;;;;;5004861;28;21105;-81
2023/12/01 10:39:25;;;;;;;1.60;1.50;;;1.90;98.20;;;;;;5002326;28;20471;-83
2023/12/01 10:41:53;;;;;;;2.17;1.97;;;1.90;98.20;;;;;;5002939;28;20470;-82
2023/12/01 10:44:24;;;;;;;1.63;1.50;;;1.90;98.20;;;;;;5005067;28;20473;-82
2023/12/01 10:46:52;;;;;;;1.63;1.40;;;1.90;98.20;;;;;;5004480;28;20985;-83
2023/12/01 10:49:19;;;;;;;2.10;1.90;;;1.90;98.20;;;;;;5009367;28;20518;-82
2023/12/01 10:51:46;;;;;;;1.63;1.40;;;1.90;98.20;;;;;;5007382;28;20488;-82
2023/12/01 10:54:15;;;;;;;1.70;1.60;;;1.90;98.20;;;;;;5004162;28;20476;-80
2023/12/01 10:56:54;;;;;;;3.43;3.23;;;1.90;98.20;;;;;;5007177;28;20759;-80
2023/12/01 10:59:24;;;;;;;1.70;1.50;;;1.90;98.20;;;;;;5009817;28;20468;-83
2023/12/01 11:01:56;;;;;;;40.83;11.67;;;1.90;98.20;;;;;;5011767;28;20559;-80
2023/12/01 11:04:26;;;;;;;1.67;1.47;;;1.80;98.20;;;;;;5004213;28;20552;-80
2023/12/01 11:07:13;;;;;;;5.30;5.00;;;1.80;98.20;;;;;;4995003;28;20535;-81
2023/12/01 11:09:52;;;;;;;1.60;1.40;;;1.80;98.20;;;;;;4998985;28;20500;-83
2023/12/01 11:12:31;;;;;;;1.70;1.50;;;1.80;98.20;;;;;;5003900;28;20476;-81
2023/12/01 11:15:06;;;;;;;1.67;1.40;;;1.80;98.20;;;;;;5002050;28;20473;-81
2023/12/01 11:17:33;;;;;;;1.63;1.43;;;1.80;98.20;;;;;;5004308;28;20591;-82
2023/12/01 11:20:00;;;;;;;1.67;1.50;;;1.80;98.20;;;;;;5004770;28;20904;-80
2023/12/01 11:22:37;;;;;;;1.60;1.50;;;1.80;98.20;;;;;;5003055;28;20469;-79
2023/12/01 11:25:05;;;;;;;1.70;1.60;;;1.90;98.20;;;;;;5003520;28;20485;-81
2023/12/01 11:27:33;;;;;;;1.60;1.40;;;1.90;98.20;;;;;;5005160;28;20549;-82
2023/12/01 11:30:06;;;;;;;2.57;2.37;;;1.90;98.20;;;;;;5005315;28;20467;-83
2023/12/01 11:32:34;;;;;;;1.63;1.40;;;1.90;98.20;;;;;;5007725;28;20542;-82
2023/12/01 11:35:04;;;;;;;1.67;1.40;;;1.90;98.20;;;;;;5008399;28;20459;-82
2023/12/01 11:37:59;;;;;;;1.70;1.47;;;1.80;98.20;;;;;;5004050;28;20647;-82
2023/12/01 11:40:27;;;;;;;1.70;1.50;;;1.80;98.20;;;;;;4996378;28;20568;-82
2023/12/01 11:42:56;;;;;;;1.67;1.40;;;1.80;98.20;;;;;;5000225;28;20474;-82
2023/12/01 11:45:37;;;;;;;1.63;1.40;;;1.80;98.20;;;;;;5003681;28;20476;-83
2023/12/01 11:48:08;;;;;;;1.70;1.60;;;1.80;98.20;;;;;;5004875;28;20583;-81
2023/12/01 11:50:34;;;;;;;1.63;1.50;;;1.80;98.20;;;;;;5005269;28;20493;-81
2023/12/01 11:53:02;;;;;;;2.13;1.93;;;1.80;98.20;;;;;;4999601;28;20500;-81
2023/12/01 11:55:30;;;;;;;1.67;1.47;;;1.70;98.20;;;;;;5002015;28;20471;-82
2023/12/01 11:57:59;;;;;;;1.70;1.50;;;1.70;98.20;;;;;;5003083;28;20587;-82
2023/12/01 12:00:27;;;;;;;2.80;2.60;;;1.70;98.20;;;;;;5005581;28;20488;-82
2023/12/01 12:02:54;;;;;;;1.70;1.50;;;1.70;98.20;;;;;;5007182;28;20460;-79
2023/12/01 12:05:20;;;;;;;1.70;1.50;;;1.70;98.20;;;;;;5003371;28;20551;-82
2023/12/01 12:07:47;;;;;;;1.90;1.70;;;1.60;98.20;;;;;;5007981;28;20586;-81
2023/12/01 12:10:22;;;;;;;1.70;1.60;;;1.60;98.20;;;;;;5006356;28;20559;-82
2023/12/01 12:12:49;;;;;;;1.70;1.50;;;1.60;98.20;;;;;;5007177;28;20461;-81
2023/12/01 12:15:18;;;;;;;1.67;1.50;;;1.70;98.20;;;;;;5008951;28;20475;-80
2023/12/01 12:17:45;;;;;;;1.70;1.50;;;1.70;98.20;;;;;;5010332;28;20480;-82
2023/12/01 12:20:12;;;;;;;1.70;1.57;;;1.80;98.20;;;;;;5009715;28;20543;-83
2023/12/01 12:22:39;;;;;;;1.60;1.50;;;1.80;98.20;;;;;;5008237;28;20917;-80
2023/12/01 12:25:10;;;;;;;1.67;1.50;;;1.80;98.20;;;;;;5007867;28;20475;-82
2023/12/01 12:27:39;;;;;;;1.70;1.50;;;1.80;98.20;;;;;;5000567;28;20493;-80
2023/12/01 12:30:07;;;;;;;1.70;1.60;;;1.80;98.20;;;;;;5004207;28;20470;-81
2023/12/01 12:32:36;;;;;;;1.63;1.50;;;1.80;98.20;;;;;;5005426;28;20468;-80
2023/12/01 12:35:03;;;;;;;1.60;1.50;;;1.70;98.20;;;;;;4999112;28;20556;-80
2023/12/01 12:37:29;;;;;;;1.67;1.47;;;1.70;98.20;;;;;;4999495;28;20492;-81
2023/12/01 12:39:56;;;;;;;1.67;1.50;;;1.70;98.20;;;;;;5003737;28;20550;-83
2023/12/01 12:42:23;;;;;;;1.63;1.40;;;1.70;98.20;;;;;;5002617;28;20578;-83
2023/12/01 12:44:51;;;;;;;1.60;1.50;;;1.70;98.20;;;;;;5004967;28;20469;-82
2023/12/01 12:47:18;;;;;;;1.63;1.50;;;1.70;98.20;;;;;;5007705;28;20492;-84
2023/12/01 12:49:48;;;;;;;1.70;1.50;;;1.70;98.20;;;;;;5007707;28;20992;-82
2023/12/01 12:52:17;;;;;;;1.60;1.50;;;1.70;98.20;;;;;;5007472;28;20474;-81
2023/12/01 12:54:44;;;;;;;1.70;1.53;;;1.70;98.20;;;;;;5007574;28;20465;-82
2023/12/01 12:57:10;;;;;;;1.60;1.40;;;1.70;98.20;;;;;;5006089;28;21228;-81
2023/12/01 12:59:40;;;;;;;1.70;1.50;;;1.70;98.20;;;;;;5007238;28;20465;-82
2023/12/01 13:02:07;;;;;;;1.70;1.50;;;1.70;98.20;;;;;;5008107;28;20468;-82